Terminal Aerodrome Forecast
Issued by NWS

Home | Current Version | Previous Version | Text Only | Print | Product List | Glossary Off
Versions: 1 2 3 4 5 6 7 8 9 10 11 12 13 14 15 16 17 18 19 20 21

000
FTUS41 KCLE 160521
TAFFDY
TAF
KFDY 160521Z 1606/1706 VRB03KT 6SM HZ SCT100 OVC200
     FM160900 08004KT 6SM BR BKN050 OVC100
     FM161300 10004KT 4SM BR SCT015 OVC035
     FM162300 11006KT 2SM -RA BR OVC008=

USA.gov is the U.S. government's official web portal to all federal, state and local government web resources and services.